createdAt,value
2018-01-10T00:00:18.563Z,94.48
2018-01-10T00:02:46.429Z,94.49
2018-01-10T00:05:14.287Z,94.52
2018-01-10T00:07:44.787Z,94.49
2018-01-10T00:10:21.386Z,94.41
2018-01-10T00:12:51.963Z,94.23
2018-01-10T00:15:24.917Z,94.32
2018-01-10T00:17:52.777Z,94.78
2018-01-10T00:20:20.655Z,95.14
2018-01-10T00:22:50.171Z,95.43
2018-01-10T00:25:18.027Z,95.71
2018-01-10T00:27:47.485Z,95.85
2018-01-10T00:30:19.919Z,96.14
2018-01-10T00:32:49.585Z,96.44
2018-01-10T00:35:19.754Z,96.67
2018-01-10T00:37:49.317Z,96.71
2018-01-10T00:40:17.199Z,96.79
2018-01-10T00:42:46.018Z,96.81
2018-01-10T00:45:14.608Z,96.83
2018-01-10T00:47:44.073Z,96.76
2018-01-10T00:50:12.697Z,96.67
2018-01-10T00:52:42.238Z,96.50
2018-01-10T00:55:10.446Z,96.54
2018-01-10T00:57:38.188Z,96.41
2018-01-10T01:00:08.866Z,96.22
2018-01-10T01:02:41.375Z,96.07
2018-01-10T01:05:09.243Z,95.98
2018-01-10T01:07:37.092Z,96.00
2018-01-10T01:10:04.871Z,96.06
2018-01-10T01:12:32.848Z,95.97
2018-01-10T01:15:00.667Z,96.02
2018-01-10T01:17:29.407Z,95.99
2018-01-10T01:19:59.734Z,95.90
2018-01-10T01:22:27.597Z,95.87
2018-01-10T01:24:55.760Z,95.80
2018-01-10T01:27:25.344Z,95.67
2018-01-10T01:29:56.406Z,95.88
2018-01-10T01:32:24.183Z,96.00
2018-01-10T01:34:51.968Z,95.88
2018-01-10T01:37:21.666Z,96.01
2018-01-10T01:39:52.005Z,96.07
2018-01-10T01:42:19.880Z,96.27
2018-01-10T01:44:47.737Z,96.23
2018-01-10T01:47:23.295Z,96.26
2018-01-10T01:49:51.146Z,96.18
2018-01-10T01:52:19.134Z,96.27
2018-01-10T01:54:47.008Z,96.42
2018-01-10T01:57:14.874Z,96.12
2018-01-10T01:59:44.364Z,96.01
2018-01-10T02:02:12.150Z,95.82
2018-01-10T02:04:40.006Z,95.70
2018-01-10T02:07:08.500Z,95.70
2018-01-10T02:09:36.266Z,95.68
2018-01-10T02:12:04.122Z,95.48
2018-01-10T02:14:33.473Z,95.32
2018-01-10T02:17:03.026Z,95.19
2018-01-10T02:19:32.618Z,95.06
2018-01-10T02:22:01.247Z,95.15
2018-01-10T02:24:32.063Z,95.14
2018-01-10T02:27:01.082Z,95.10
2018-01-10T02:29:28.938Z,95.09
2018-01-10T02:31:59.282Z,95.08
2018-01-10T02:34:27.147Z,95.30
2018-01-10T02:36:54.916Z,95.46
2018-01-10T02:39:23.418Z,95.39
2018-01-10T02:41:51.243Z,95.31
2018-01-10T02:44:20.728Z,95.40
2018-01-10T02:46:51.280Z,95.51
2018-01-10T02:49:19.156Z,95.40
2018-01-10T02:51:47.215Z,95.24
2018-01-10T02:54:21.412Z,95.07
2018-01-10T02:56:50.142Z,95.06
2018-01-10T02:59:18.746Z,95.17
2018-01-10T03:01:46.724Z,95.18
2018-01-10T03:04:16.206Z,95.19
2018-01-10T03:06:44.086Z,94.97
2018-01-10T03:09:13.516Z,94.85
2018-01-10T03:11:43.214Z,95.04
2018-01-10T03:14:11.184Z,95.35
2018-01-10T03:16:39.027Z,95.67
2018-01-10T03:19:09.482Z,95.71
2018-01-10T03:21:37.236Z,95.64
2018-01-10T03:24:05.742Z,95.57
2018-01-10T03:26:34.216Z,95.62
2018-01-10T03:29:04.056Z,95.64
2018-01-10T03:31:38.760Z,95.68
2018-01-10T03:34:14.310Z,95.62
2018-01-10T03:36:43.864Z,95.42
2018-01-10T03:39:14.389Z,95.20
2018-01-10T03:41:46.059Z,95.35
2018-01-10T03:44:13.976Z,95.63
2018-01-10T03:46:41.733Z,95.81
2018-01-10T03:49:09.503Z,95.85
2018-01-10T03:51:37.378Z,95.86
2018-01-10T03:54:10.017Z,95.78
2018-01-10T03:56:37.916Z,95.67
2018-01-10T03:59:10.824Z,95.82
2018-01-10T04:01:40.825Z,95.75
2018-01-10T04:04:09.832Z,95.72
2018-01-10T04:06:37.808Z,95.79
2018-01-10T04:09:11.026Z,95.50
2018-01-10T04:11:39.176Z,95.44
2018-01-10T04:14:06.922Z,95.35
2018-01-10T04:16:36.502Z,95.20
2018-01-10T04:21:44.528Z,95.47
2018-01-10T04:24:15.860Z,95.57
2018-01-10T04:26:44.516Z,95.61
2018-01-10T04:29:14.106Z,95.60
2018-01-10T04:31:42.696Z,95.59
2018-01-10T04:34:10.576Z,95.60
2018-01-10T04:36:41.111Z,95.70
2018-01-10T04:39:08.898Z,95.88
2018-01-10T04:41:36.737Z,95.98
2018-01-10T04:44:08.394Z,95.92
2018-01-10T04:46:36.694Z,95.81
2018-01-10T04:49:04.547Z,95.71
2018-01-10T04:51:32.315Z,95.77
2018-01-10T04:54:00.222Z,95.98
2018-01-10T04:56:29.785Z,96.05
2018-01-10T04:58:57.766Z,96.04
2018-01-10T05:01:28.892Z,95.95
2018-01-10T05:04:00.413Z,95.86
2018-01-10T05:06:29.924Z,95.75
2018-01-10T05:08:57.748Z,95.66
2018-01-10T05:11:26.365Z,95.49
2018-01-10T05:13:54.910Z,95.50
2018-01-10T05:16:23.195Z,95.39
2018-01-10T05:18:50.965Z,95.39
2018-01-10T05:21:18.835Z,95.46
2018-01-10T05:23:46.775Z,95.40
2018-01-10T05:26:14.574Z,95.41
2018-01-10T05:28:44.193Z,95.38
2018-01-10T05:31:12.046Z,95.30
2018-01-10T05:33:44.100Z,95.25
2018-01-10T05:36:11.887Z,95.20
2018-01-10T05:38:42.333Z,95.23
2018-01-10T05:43:44.334Z,95.30
2018-01-10T05:46:12.154Z,95.45
2018-01-10T05:48:39.936Z,95.82
2018-01-10T05:51:07.810Z,95.99
2018-01-10T05:53:35.668Z,95.98
2018-01-10T05:56:03.458Z,96.00
2018-01-10T05:58:31.300Z,96.05
2018-01-10T06:01:00.121Z,96.13
2018-01-10T06:03:27.938Z,96.29
2018-01-10T06:05:55.850Z,96.36
2018-01-10T06:08:25.503Z,96.36
2018-01-10T06:10:53.316Z,96.31
2018-01-10T06:13:21.811Z,96.31
2018-01-10T06:15:49.667Z,96.32
2018-01-10T06:18:20.822Z,96.18
2018-01-10T06:20:48.588Z,96.03
2018-01-10T06:25:53.864Z,96.06
2018-01-10T06:28:21.729Z,96.01
2018-01-10T06:30:51.299Z,96.10
2018-01-10T06:35:55.248Z,96.35
2018-01-10T06:38:23.950Z,96.37
2018-01-10T06:40:52.741Z,96.47
2018-01-10T06:43:20.543Z,96.53
2018-01-10T06:45:56.438Z,96.62
2018-01-10T06:48:27.049Z,96.67
2018-01-10T06:50:56.262Z,96.64
2018-01-10T06:53:24.142Z,96.58
2018-01-10T06:55:52.044Z,96.47
2018-01-10T06:58:20.592Z,96.61
2018-01-10T07:00:50.045Z,96.60
2018-01-10T07:03:25.316Z,96.67
2018-01-10T07:05:53.325Z,96.67
2018-01-10T07:08:22.233Z,96.63
2018-01-10T07:10:50.008Z,96.59
2018-01-10T07:13:17.774Z,96.58
2018-01-10T07:15:45.649Z,96.60
2018-01-10T07:18:13.619Z,96.47
2018-01-10T07:20:41.359Z,96.67
2018-01-10T07:23:09.154Z,96.95
2018-01-10T07:25:38.165Z,97.07
2018-01-10T07:28:05.995Z,97.09
2018-01-10T07:30:35.675Z,97.10
2018-01-10T07:33:03.696Z,97.12
2018-01-10T07:35:31.488Z,97.04
2018-01-10T07:37:59.447Z,96.95
2018-01-10T07:40:28.983Z,96.83
2018-01-10T07:42:59.335Z,96.83
2018-01-10T07:45:27.232Z,96.76
2018-01-10T07:47:55.323Z,96.76
2018-01-10T07:50:23.811Z,96.77
2018-01-10T07:52:51.671Z,96.94
2018-01-10T07:55:19.537Z,96.93
2018-01-10T07:57:47.396Z,96.70
2018-01-10T08:00:15.269Z,96.77
2018-01-10T08:02:43.240Z,96.82
2018-01-10T08:05:13.748Z,96.90
2018-01-10T08:07:43.087Z,96.85
2018-01-10T08:10:11.985Z,96.83
2018-01-10T08:12:40.055Z,96.84
2018-01-10T08:15:09.814Z,96.74
2018-01-10T08:17:39.628Z,96.62
2018-01-10T08:20:09.341Z,96.70
2018-01-10T08:22:37.153Z,96.66
2018-01-10T08:25:06.767Z,96.54
2018-01-10T08:27:36.367Z,96.56
2018-01-10T08:32:42.861Z,96.70
2018-01-10T08:35:11.681Z,96.66
2018-01-10T08:37:42.133Z,96.59
2018-01-10T08:40:18.729Z,96.68
2018-01-10T08:42:46.651Z,96.73
2018-01-10T08:45:14.394Z,96.78
2018-01-10T08:47:44.033Z,96.50
2018-01-10T08:50:13.736Z,96.55
2018-01-10T08:52:41.606Z,96.50
2018-01-10T08:55:12.550Z,96.54
2018-01-10T08:57:40.559Z,96.57
2018-01-10T09:00:08.387Z,96.51
2018-01-10T09:02:36.245Z,96.38
2018-01-10T09:05:04.036Z,96.34
2018-01-10T09:07:32.728Z,96.17
2018-01-10T09:10:00.795Z,95.97
2018-01-10T09:12:31.285Z,95.81
2018-01-10T09:15:01.554Z,95.65
2018-01-10T09:17:32.489Z,95.56
2018-01-10T09:20:01.944Z,95.30
2018-01-10T09:22:29.740Z,95.03
2018-01-10T09:24:57.608Z,94.70
2018-01-10T09:27:25.463Z,94.48
2018-01-10T09:29:54.086Z,94.62
2018-01-10T09:32:21.946Z,94.71
2018-01-10T09:34:52.478Z,94.74
2018-01-10T09:37:21.068Z,94.66
2018-01-10T09:39:48.971Z,94.70
2018-01-10T09:42:16.666Z,94.42
2018-01-10T09:44:46.100Z,94.24
2018-01-10T09:47:15.742Z,94.23
2018-01-10T09:49:43.781Z,94.30
2018-01-10T09:52:13.316Z,94.44
2018-01-10T09:54:41.322Z,94.34
2018-01-10T09:57:12.592Z,94.31
2018-01-10T09:59:40.413Z,94.37
2018-01-10T10:02:09.716Z,94.34
2018-01-10T10:04:39.569Z,94.32
2018-01-10T10:07:07.397Z,94.27
2018-01-10T10:09:35.262Z,94.27
2018-01-10T10:12:03.233Z,94.25
2018-01-10T10:14:31.098Z,94.27
2018-01-10T10:16:58.880Z,94.34
2018-01-10T10:19:26.649Z,94.35
2018-01-10T10:21:54.512Z,94.45
2018-01-10T10:24:22.363Z,94.55
2018-01-10T10:26:51.495Z,94.67
2018-01-10T10:29:21.198Z,94.58
2018-01-10T10:31:50.810Z,94.42
2018-01-10T10:34:22.560Z,94.23
2018-01-10T10:36:51.173Z,94.15
2018-01-10T10:39:19.100Z,94.00
2018-01-10T10:41:48.957Z,93.77
2018-01-10T10:44:20.078Z,93.57
2018-01-10T10:46:49.680Z,93.22
2018-01-10T10:49:17.663Z,93.22
2018-01-10T10:51:45.562Z,93.06
2018-01-10T10:54:15.084Z,92.82
2018-01-10T10:56:42.933Z,92.33
2018-01-10T10:59:11.068Z,92.05
2018-01-10T11:01:48.359Z,92.10
2018-01-10T11:04:23.308Z,91.77
2018-01-10T11:06:51.019Z,91.58
2018-01-10T11:09:19.129Z,91.67
2018-01-10T11:11:46.840Z,91.65
2018-01-10T11:14:14.660Z,91.36
2018-01-10T11:16:42.545Z,90.91
2018-01-10T11:19:17.006Z,90.78
2018-01-10T11:21:44.951Z,90.72
2018-01-10T11:24:13.136Z,90.80
2018-01-10T11:26:44.361Z,90.69
2018-01-10T11:29:17.052Z,90.69
2018-01-10T11:31:44.909Z,90.54
2018-01-10T11:34:12.892Z,90.42
2018-01-10T11:36:42.824Z,90.45
2018-01-10T11:39:12.321Z,90.27
2018-01-10T11:41:40.199Z,90.24
2018-01-10T11:44:08.649Z,90.08
2018-01-10T11:46:36.454Z,89.88
2018-01-10T11:49:06.973Z,89.79
2018-01-10T11:51:34.775Z,89.67
2018-01-10T11:56:30.490Z,89.12
2018-01-10T11:58:58.339Z,88.92
2018-01-10T12:01:33.340Z,88.95
2018-01-10T12:04:01.884Z,89.00
2018-01-10T12:06:29.632Z,89.04
2018-01-10T12:08:57.413Z,89.02
2018-01-10T12:11:25.388Z,89.09
2018-01-10T12:13:55.000Z,89.13
2018-01-10T12:16:24.455Z,89.08
2018-01-10T12:18:54.003Z,88.97
2018-01-10T12:21:23.764Z,88.76
2018-01-10T12:23:53.208Z,88.68
2018-01-10T12:26:23.016Z,88.64
2018-01-10T12:28:53.095Z,88.51
2018-01-10T12:31:20.927Z,88.58
2018-01-10T12:33:50.780Z,88.60
2018-01-10T12:36:20.103Z,88.56
2018-01-10T12:38:48.850Z,88.65
2018-01-10T12:41:18.953Z,88.57
2018-01-10T12:43:48.558Z,88.49
2018-01-10T12:46:16.476Z,88.30
2018-01-10T12:48:44.337Z,88.34
2018-01-10T12:51:13.948Z,88.53
2018-01-10T12:53:41.794Z,88.63
2018-01-10T12:56:12.960Z,88.62
2018-01-10T12:58:48.400Z,88.66
2018-01-10T13:01:16.225Z,88.55
2018-01-10T13:03:44.034Z,88.64
2018-01-10T13:06:12.470Z,88.70
2018-01-10T13:08:40.373Z,88.73
2018-01-10T13:11:15.839Z,88.93
2018-01-10T13:13:43.820Z,89.14
2018-01-10T13:16:13.428Z,89.32
2018-01-10T13:18:41.372Z,89.76
2018-01-10T13:21:13.668Z,89.99
2018-01-10T13:23:43.298Z,90.11
2018-01-10T13:26:14.874Z,90.20
2018-01-10T13:28:44.969Z,90.26
2018-01-10T13:31:14.736Z,90.39
2018-01-10T13:33:47.326Z,90.49
2018-01-10T13:36:16.956Z,90.55
2018-01-10T13:38:45.654Z,90.71
2018-01-10T13:41:13.519Z,90.79
2018-01-10T13:43:45.666Z,90.99
2018-01-10T13:46:16.160Z,91.13
2018-01-10T13:48:44.080Z,91.21
2018-01-10T13:51:13.686Z,91.32
2018-01-10T13:53:43.846Z,91.48
2018-01-10T13:56:11.774Z,91.68
2018-01-10T13:58:42.267Z,91.85
2018-01-10T14:01:11.833Z,91.99
2018-01-10T14:03:41.776Z,92.26
2018-01-10T14:06:09.640Z,92.51
2018-01-10T14:08:39.550Z,92.77
2018-01-10T14:11:07.702Z,92.93
2018-01-10T14:16:09.803Z,93.80
2018-01-10T14:18:37.783Z,94.23
2018-01-10T14:21:05.653Z,94.40
2018-01-10T14:23:33.505Z,94.58
2018-01-10T14:26:01.346Z,94.67
2018-01-10T14:34:56.531Z,95.26
2018-01-10T14:37:26.230Z,95.53
2018-01-10T14:39:54.192Z,95.73
2018-01-10T14:42:22.544Z,95.86
2018-01-10T14:44:51.329Z,95.98
2018-01-10T14:47:20.930Z,96.14
2018-01-10T14:49:50.537Z,96.37
2018-01-10T14:52:20.173Z,96.63
2018-01-10T14:54:51.936Z,96.83
2018-01-10T14:57:22.065Z,96.94
2018-01-10T14:59:49.941Z,97.10
2018-01-10T15:02:18.254Z,97.20
2018-01-10T15:04:48.771Z,97.36
2018-01-10T15:07:33.252Z,97.48
2018-01-10T15:10:01.143Z,97.58
2018-01-10T15:12:30.613Z,97.69
2018-01-10T15:15:00.237Z,97.82
2018-01-10T15:17:37.879Z,98.12
2018-01-10T15:20:06.775Z,98.45
2018-01-10T15:22:34.844Z,98.81
2018-01-10T15:25:03.535Z,99.10
2018-01-10T15:27:31.399Z,99.36
2018-01-10T15:29:59.275Z,99.50
2018-01-10T15:32:33.547Z,99.67
2018-01-10T15:35:03.035Z,99.75
2018-01-10T15:37:30.955Z,99.81
2018-01-10T15:39:58.950Z,99.86
2018-01-10T15:42:28.431Z,99.88
2018-01-10T15:44:56.319Z,99.95
2018-01-10T15:47:32.369Z,99.98
2018-01-10T15:50:00.247Z,100.00
2018-01-10T15:52:28.221Z,100.00
2018-01-10T15:54:56.235Z,100.00
2018-01-10T15:57:24.058Z,100.00
2018-01-10T15:59:51.927Z,100.00
2018-01-10T16:02:20.396Z,100.00
2018-01-10T16:04:48.392Z,100.00
2018-01-10T16:07:16.969Z,100.00
2018-01-10T16:09:44.757Z,100.00
2018-01-10T16:12:12.992Z,100.00
2018-01-10T16:14:40.879Z,100.00
2018-01-10T16:17:10.503Z,100.00
2018-01-10T16:19:40.217Z,100.00
2018-01-10T16:22:08.180Z,100.00
2018-01-10T16:24:37.094Z,100.00
2018-01-10T16:27:04.846Z,100.00
2018-01-10T16:29:32.691Z,100.00
2018-01-10T16:32:00.691Z,100.00
2018-01-10T16:34:28.438Z,100.00
2018-01-10T16:39:32.487Z,100.00
2018-01-10T16:42:00.567Z,100.00
2018-01-10T16:44:28.474Z,100.00
2018-01-10T16:46:58.020Z,100.00
2018-01-10T16:49:38.825Z,100.00
2018-01-10T16:52:08.352Z,100.00
2018-01-10T16:54:38.975Z,100.00
2018-01-10T16:57:08.626Z,100.00
2018-01-10T16:59:38.691Z,100.00
2018-01-10T17:02:06.904Z,100.00
2018-01-10T17:04:42.378Z,100.00
2018-01-10T17:07:10.378Z,100.00
2018-01-10T17:09:38.363Z,100.00
2018-01-10T17:12:06.934Z,100.00
2018-01-10T17:14:39.851Z,100.00
2018-01-10T17:17:09.382Z,100.00
2018-01-10T17:19:38.115Z,100.00
2018-01-10T17:22:06.710Z,100.00
2018-01-10T17:24:38.467Z,100.00
2018-01-10T17:27:15.556Z,100.00
2018-01-10T17:29:49.553Z,100.00
2018-01-10T17:32:20.429Z,100.00
2018-01-10T17:34:51.841Z,100.00
2018-01-10T17:37:22.568Z,100.00
2018-01-10T17:39:50.556Z,100.00
2018-01-10T17:42:18.319Z,100.00
2018-01-10T17:44:52.187Z,100.00
2018-01-10T17:47:26.268Z,100.00
2018-01-10T17:49:58.098Z,100.00
2018-01-10T17:52:25.957Z,100.00
2018-01-10T17:54:53.744Z,100.00
2018-01-10T17:57:22.508Z,100.00
2018-01-10T17:59:52.996Z,100.00
2018-01-10T18:02:21.037Z,100.00
2018-01-10T18:07:23.286Z,100.00
2018-01-10T18:09:52.776Z,100.00
2018-01-10T18:12:27.248Z,100.00
2018-01-10T18:14:57.873Z,100.00
2018-01-10T18:17:38.648Z,100.00
2018-01-10T18:20:06.516Z,100.00
2018-01-10T18:22:36.199Z,100.00
2018-01-10T18:25:04.916Z,100.00
2018-01-10T18:27:42.976Z,100.00
2018-01-10T18:30:12.651Z,100.00
2018-01-10T18:32:44.186Z,100.00
2018-01-10T18:35:12.798Z,100.00
2018-01-10T18:37:41.358Z,100.00
2018-01-10T18:40:11.085Z,100.00
2018-01-10T18:42:46.104Z,100.00
2018-01-10T18:45:14.802Z,100.00
2018-01-10T18:47:49.104Z,100.00
2018-01-10T18:50:18.521Z,100.00
2018-01-10T18:52:46.383Z,100.00
2018-01-10T18:55:14.198Z,100.00
2018-01-10T18:57:42.080Z,100.00
2018-01-10T19:00:13.572Z,100.00
2018-01-10T19:02:42.448Z,100.00
2018-01-10T19:07:44.642Z,100.00
2018-01-10T19:10:13.459Z,100.00
2018-01-10T19:12:42.162Z,100.00
2018-01-10T19:15:10.826Z,100.00
2018-01-10T19:17:38.915Z,100.00
2018-01-10T19:20:06.991Z,100.00
2018-01-10T19:22:36.729Z,100.00
2018-01-10T19:25:06.573Z,100.00
2018-01-10T19:27:34.583Z,100.00
2018-01-10T19:30:02.684Z,100.00
2018-01-10T19:32:31.557Z,100.00
2018-01-10T19:35:00.238Z,100.00
2018-01-10T19:37:28.413Z,100.00
2018-01-10T19:40:02.625Z,100.00
2018-01-10T19:42:30.812Z,100.00
2018-01-10T19:44:59.824Z,100.00
2018-01-10T19:47:44.275Z,100.00
2018-01-10T19:50:13.906Z,100.00
2018-01-10T19:52:43.097Z,100.00
2018-01-10T19:55:12.830Z,100.00
2018-01-10T19:57:41.702Z,100.00
2018-01-10T20:00:09.901Z,100.00
2018-01-10T20:02:47.628Z,100.00
2018-01-10T20:05:19.409Z,100.00
2018-01-10T20:07:47.815Z,100.00
2018-01-10T20:10:26.352Z,100.00
2018-01-10T20:12:54.586Z,100.00
2018-01-10T20:15:24.898Z,100.00
2018-01-10T20:17:54.749Z,100.00
2018-01-10T20:20:27.001Z,100.00
2018-01-10T20:22:55.073Z,100.00
2018-01-10T20:25:25.025Z,100.00
2018-01-10T20:27:53.264Z,100.00
2018-01-10T20:30:27.885Z,100.00
2018-01-10T20:32:58.521Z,100.00
2018-01-10T20:35:27.499Z,100.00
2018-01-10T20:37:59.273Z,100.00
2018-01-10T20:40:27.554Z,100.00
2018-01-10T20:42:57.274Z,100.00
2018-01-10T20:45:25.348Z,100.00
2018-01-10T20:47:54.941Z,100.00
2018-01-10T20:50:23.041Z,100.00
2018-01-10T20:52:51.121Z,100.00
2018-01-10T20:55:19.278Z,100.00
2018-01-10T20:57:47.344Z,100.00
2018-01-10T21:00:15.532Z,100.00
2018-01-10T21:02:43.602Z,100.00
2018-01-10T21:05:12.487Z,100.00
2018-01-10T21:07:44.373Z,100.00
2018-01-10T21:10:14.182Z,100.00
2018-01-10T21:12:42.246Z,100.00
2018-01-10T21:15:10.201Z,100.00
2018-01-10T21:17:38.293Z,100.00
2018-01-10T21:20:06.277Z,100.00
2018-01-10T21:22:34.245Z,100.00
2018-01-10T21:25:02.232Z,100.00
2018-01-10T21:27:31.315Z,100.00
2018-01-10T21:30:01.022Z,100.00
2018-01-10T21:32:37.033Z,100.00
2018-01-10T21:35:06.960Z,100.00
2018-01-10T21:37:41.411Z,100.00
2018-01-10T21:40:10.108Z,100.00
2018-01-10T21:42:43.769Z,100.00
2018-01-10T21:45:11.604Z,100.00
2018-01-10T21:47:45.881Z,100.00
2018-01-10T21:50:16.536Z,100.00
2018-01-10T21:52:44.500Z,100.00
2018-01-10T21:55:12.782Z,100.00
2018-01-10T21:57:48.423Z,100.00
2018-01-10T22:00:16.301Z,100.00
2018-01-10T22:02:45.296Z,100.00
2018-01-10T22:05:13.142Z,100.00
2018-01-10T22:07:43.968Z,100.00
2018-01-10T22:13:03.582Z,100.00
2018-01-10T22:15:33.057Z,100.00
2018-01-10T22:18:00.947Z,100.00
2018-01-10T22:20:28.728Z,100.00
2018-01-10T22:22:58.598Z,100.00
2018-01-10T22:25:27.230Z,100.00
2018-01-10T22:27:55.108Z,100.00
2018-01-10T22:30:22.982Z,100.00
2018-01-10T22:32:52.646Z,100.00
2018-01-10T22:35:29.023Z,100.00
2018-01-10T22:37:59.687Z,100.00
2018-01-10T22:40:33.479Z,100.00
2018-01-10T22:43:02.092Z,100.00
2018-01-10T22:45:30.066Z,100.00
2018-01-10T22:47:58.019Z,100.00
2018-01-10T22:50:25.882Z,100.00
2018-01-10T22:52:53.762Z,100.00
2018-01-10T22:55:23.362Z,100.00
2018-01-10T22:57:51.453Z,100.00
2018-01-10T23:00:27.393Z,100.00
2018-01-10T23:02:57.974Z,100.00
2018-01-10T23:05:25.833Z,100.00
2018-01-10T23:07:53.616Z,100.00
2018-01-10T23:10:31.544Z,100.00
2018-01-10T23:12:59.642Z,100.00
2018-01-10T23:15:27.518Z,100.00
2018-01-10T23:17:55.367Z,100.00
2018-01-10T23:20:23.444Z,100.00
2018-01-10T23:22:51.323Z,100.00
2018-01-10T23:25:22.167Z,100.00
2018-01-10T23:27:50.003Z,100.00
2018-01-10T23:30:22.724Z,100.00
2018-01-10T23:32:50.615Z,100.00
2018-01-10T23:35:20.236Z,100.00
2018-01-10T23:37:50.531Z,100.00
2018-01-10T23:40:26.849Z,100.00
2018-01-10T23:42:57.359Z,100.00
2018-01-10T23:45:25.271Z,100.00
2018-01-10T23:47:55.645Z,100.00
2018-01-10T23:50:24.918Z,100.00
2018-01-10T23:52:52.683Z,100.00
2018-01-10T23:55:21.267Z,100.00
2018-01-10T23:57:49.126Z,100.00
